createdAt,value
2018-08-22T00:00:09.634Z,2.50
2018-08-22T00:01:09.771Z,3.00
2018-08-22T00:02:09.922Z,2.90
2018-08-22T00:03:10.057Z,3.00
2018-08-22T00:04:10.197Z,3.10
2018-08-22T00:05:10.380Z,3.50
2018-08-22T00:06:10.515Z,3.60
2018-08-22T00:07:10.646Z,3.50
2018-08-22T00:08:10.783Z,3.00
2018-08-22T00:09:10.955Z,3.10
2018-08-22T00:10:11.090Z,3.30
2018-08-22T00:11:11.229Z,3.30
2018-08-22T00:12:11.383Z,3.00
2018-08-22T00:13:11.521Z,2.90
2018-08-22T00:14:11.655Z,3.10
2018-08-22T00:15:11.842Z,3.20
2018-08-22T00:16:11.959Z,2.90
2018-08-22T00:17:12.088Z,2.60
2018-08-22T00:18:12.239Z,3.10
2018-08-22T00:19:12.401Z,2.80
2018-08-22T00:20:12.538Z,2.70
2018-08-22T00:21:12.687Z,3.00
2018-08-22T00:22:12.827Z,3.00
2018-08-22T00:23:12.972Z,2.90
2018-08-22T00:24:13.107Z,2.80
2018-08-22T00:25:13.267Z,2.80
2018-08-22T00:26:13.388Z,2.60
2018-08-22T00:27:13.527Z,2.70
2018-08-22T00:28:13.666Z,3.00
2018-08-22T00:29:13.873Z,2.70
2018-08-22T00:30:13.961Z,2.90
2018-08-22T00:31:14.103Z,3.00
2018-08-22T00:32:14.235Z,2.50
2018-08-22T00:33:14.397Z,2.80
2018-08-22T00:34:14.646Z,2.80
2018-08-22T00:35:14.697Z,2.80
2018-08-22T00:36:14.836Z,2.60
2018-08-22T00:37:14.977Z,2.70
2018-08-22T00:38:15.116Z,2.80
2018-08-22T00:39:15.257Z,2.90
2018-08-22T00:40:15.395Z,3.00
2018-08-22T00:41:15.531Z,2.80
2018-08-22T00:42:15.673Z,2.60
2018-08-22T00:43:15.812Z,3.20
2018-08-22T00:44:15.951Z,3.50
2018-08-22T00:45:16.092Z,3.90
2018-08-22T00:46:16.227Z,3.20
2018-08-22T00:47:16.372Z,2.80
2018-08-22T00:48:16.513Z,3.10
2018-08-22T00:49:16.651Z,2.80
2018-08-22T00:50:16.795Z,2.70
2018-08-22T00:51:16.936Z,2.70
2018-08-22T00:52:17.084Z,2.80
2018-08-22T00:53:17.219Z,2.60
2018-08-22T00:54:17.365Z,2.80
2018-08-22T00:55:17.509Z,2.90
2018-08-22T00:56:17.656Z,2.70
2018-08-22T00:57:17.791Z,2.80
2018-08-22T00:58:17.929Z,2.50
2018-08-22T00:59:18.067Z,2.70
2018-08-22T01:00:18.214Z,2.70
2018-08-22T01:01:18.355Z,2.70
2018-08-22T01:02:18.497Z,2.60
2018-08-22T01:03:18.640Z,2.80
2018-08-22T01:04:18.785Z,3.10
2018-08-22T01:05:18.923Z,3.20
2018-08-22T01:06:19.083Z,3.50
2018-08-22T01:07:19.224Z,3.20
2018-08-22T01:08:19.357Z,2.90
2018-08-22T01:09:19.497Z,3.00
2018-08-22T01:10:19.634Z,3.00
2018-08-22T01:11:19.774Z,3.10
2018-08-22T01:12:19.917Z,3.10
2018-08-22T01:13:20.061Z,3.30
2018-08-22T01:14:20.244Z,3.60
2018-08-22T01:15:20.379Z,3.50
2018-08-22T01:16:20.521Z,3.30
2018-08-22T01:17:20.667Z,3.40
2018-08-22T01:18:20.808Z,3.40
2018-08-22T01:19:20.945Z,3.60
2018-08-22T01:20:21.089Z,3.20
2018-08-22T01:21:21.227Z,3.10
2018-08-22T01:22:21.369Z,2.90
2018-08-22T01:23:21.510Z,2.90
2018-08-22T01:24:21.644Z,2.80
2018-08-22T01:25:21.786Z,2.80
2018-08-22T01:26:21.920Z,2.70
2018-08-22T01:27:22.059Z,2.60
2018-08-22T01:28:22.199Z,2.80
2018-08-22T01:29:22.336Z,2.70
2018-08-22T01:30:22.479Z,2.90
2018-08-22T01:31:22.648Z,2.70
2018-08-22T01:32:22.760Z,2.90
2018-08-22T01:33:22.903Z,3.00
2018-08-22T01:34:23.076Z,2.90
2018-08-22T01:35:23.224Z,3.00
2018-08-22T01:36:23.362Z,3.10
2018-08-22T01:37:23.499Z,3.10
2018-08-22T01:38:23.665Z,2.90
2018-08-22T01:39:23.801Z,3.20
2018-08-22T01:40:23.928Z,3.20
2018-08-22T01:41:24.087Z,3.30
2018-08-22T01:42:24.239Z,2.80
2018-08-22T01:43:24.397Z,3.70
2018-08-22T01:44:24.538Z,3.10
2018-08-22T01:45:24.672Z,2.80
2018-08-22T01:46:24.814Z,3.30
2018-08-22T01:47:24.983Z,3.20
2018-08-22T01:48:25.124Z,3.10
2018-08-22T01:49:25.261Z,3.10
2018-08-22T01:50:25.425Z,3.00
2018-08-22T01:51:25.556Z,3.20
2018-08-22T01:52:25.695Z,3.20
2018-08-22T01:53:25.850Z,3.20
2018-08-22T01:54:25.988Z,3.10
2018-08-22T01:55:26.129Z,3.30
2018-08-22T01:56:27.166Z,3.40
2018-08-22T01:57:26.382Z,3.10
2018-08-22T01:58:26.527Z,3.20
2018-08-22T01:59:26.682Z,3.20
2018-08-22T02:00:26.813Z,3.30
2018-08-22T02:01:26.957Z,3.20
2018-08-22T02:02:27.110Z,3.20
2018-08-22T02:03:27.239Z,3.40
2018-08-22T02:04:27.383Z,3.30
2018-08-22T02:05:27.519Z,3.10
2018-08-22T02:06:27.679Z,3.30
2018-08-22T02:07:27.822Z,3.50
2018-08-22T02:08:27.949Z,3.30
2018-08-22T02:09:28.083Z,3.20
2018-08-22T02:10:28.222Z,3.30
2018-08-22T02:11:28.381Z,3.60
2018-08-22T02:12:28.512Z,3.40
2018-08-22T02:13:28.661Z,3.30
2018-08-22T02:14:28.797Z,3.60
2018-08-22T02:15:28.960Z,3.70
2018-08-22T02:16:29.098Z,4.00
2018-08-22T02:17:29.262Z,3.40
2018-08-22T02:18:29.395Z,3.70
2018-08-22T02:19:29.536Z,4.10
2018-08-22T02:20:29.675Z,3.60
2018-08-22T02:21:29.847Z,3.80
2018-08-22T02:22:29.978Z,3.50
2018-08-22T02:23:30.119Z,3.40
2018-08-22T02:24:30.263Z,3.20
2018-08-22T02:25:30.427Z,3.50
2018-08-22T02:26:30.557Z,3.30
2018-08-22T02:27:30.700Z,3.20
2018-08-22T02:28:30.847Z,3.40
2018-08-22T02:29:30.984Z,3.40
2018-08-22T02:30:31.138Z,3.20
2018-08-22T02:31:31.285Z,3.60
2018-08-22T02:32:31.448Z,3.50
2018-08-22T02:33:31.586Z,4.00
2018-08-22T02:34:31.719Z,3.90
2018-08-22T02:35:31.865Z,4.10
2018-08-22T02:36:32.025Z,3.70
2018-08-22T02:37:32.161Z,3.70
2018-08-22T02:38:32.305Z,3.50
2018-08-22T02:39:32.448Z,3.60
2018-08-22T02:40:33.419Z,3.60
2018-08-22T02:41:32.712Z,3.60
2018-08-22T02:42:32.863Z,3.60
2018-08-22T02:43:33.023Z,3.70
2018-08-22T02:44:33.188Z,4.20
2018-08-22T02:45:33.326Z,4.00
2018-08-22T02:46:33.468Z,4.20
2018-08-22T02:47:33.616Z,4.20
2018-08-22T02:48:33.794Z,3.90
2018-08-22T02:49:33.916Z,3.80
2018-08-22T02:50:34.058Z,3.70
2018-08-22T02:51:34.201Z,3.50
2018-08-22T02:52:34.363Z,3.40
2018-08-22T02:53:34.506Z,3.50
2018-08-22T02:54:34.647Z,3.70
2018-08-22T02:55:34.799Z,3.80
2018-08-22T02:56:34.935Z,3.40
2018-08-22T02:57:35.075Z,3.60
2018-08-22T02:58:35.260Z,3.50
2018-08-22T02:59:35.392Z,3.60
2018-08-22T03:00:35.533Z,3.60
2018-08-22T03:01:35.672Z,3.70
2018-08-22T03:02:35.828Z,3.90
2018-08-22T03:03:35.963Z,3.70
2018-08-22T03:04:36.107Z,3.50
2018-08-22T03:05:36.249Z,3.70
2018-08-22T03:06:36.474Z,4.00
2018-08-22T03:07:36.585Z,4.00
2018-08-22T03:08:36.725Z,3.80
2018-08-22T03:09:36.893Z,4.10
2018-08-22T03:10:37.034Z,3.60
2018-08-22T03:11:37.176Z,4.00
2018-08-22T03:12:37.314Z,3.60
2018-08-22T03:13:37.480Z,3.80
2018-08-22T03:14:37.618Z,3.80
2018-08-22T03:15:37.761Z,3.70
2018-08-22T03:16:37.924Z,4.10
2018-08-22T03:17:38.056Z,4.10
2018-08-22T03:18:38.201Z,4.30
2018-08-22T03:19:38.342Z,4.10
2018-08-22T03:20:38.487Z,4.20
2018-08-22T03:21:38.624Z,4.30
2018-08-22T03:22:38.773Z,4.40
2018-08-22T03:23:38.915Z,3.90
2018-08-22T03:24:39.055Z,4.00
2018-08-22T03:25:39.194Z,4.10
2018-08-22T03:26:39.360Z,4.40
2018-08-22T03:27:39.498Z,5.70
2018-08-22T03:28:39.644Z,5.50
2018-08-22T03:29:39.783Z,4.50
2018-08-22T03:30:39.962Z,5.10
2018-08-22T03:31:40.102Z,4.80
2018-08-22T03:32:40.245Z,4.60
2018-08-22T03:33:40.406Z,5.40
2018-08-22T03:34:40.564Z,6.30
2018-08-22T03:35:40.700Z,5.90
2018-08-22T03:36:40.846Z,5.40
2018-08-22T03:37:40.990Z,5.50
2018-08-22T03:38:41.121Z,5.90
2018-08-22T03:39:41.266Z,5.10
2018-08-22T03:40:41.415Z,4.80
2018-08-22T03:41:41.552Z,4.30
2018-08-22T03:42:41.689Z,4.30
2018-08-22T03:43:41.845Z,4.30
2018-08-22T03:44:41.981Z,4.70
2018-08-22T03:45:42.125Z,4.50
2018-08-22T03:46:43.177Z,4.50
2018-08-22T03:47:42.478Z,4.90
2018-08-22T03:48:42.615Z,4.80
2018-08-22T03:49:42.757Z,4.80
2018-08-22T03:50:42.898Z,4.70
2018-08-22T03:51:43.144Z,4.90
2018-08-22T03:52:43.178Z,4.80
2018-08-22T03:53:43.318Z,4.20
2018-08-22T03:54:43.482Z,4.40
2018-08-22T03:55:43.624Z,4.40
2018-08-22T03:56:43.765Z,4.30
2018-08-22T03:57:43.901Z,4.10
2018-08-22T03:58:44.047Z,4.40
2018-08-22T03:59:44.188Z,4.60
2018-08-22T04:00:44.330Z,4.80
2018-08-22T04:01:44.520Z,4.70
2018-08-22T04:02:44.652Z,4.40
2018-08-22T04:03:44.793Z,4.60
2018-08-22T04:04:45.504Z,4.50
2018-08-22T04:05:45.059Z,4.40
2018-08-22T04:06:45.206Z,4.70
2018-08-22T04:07:45.341Z,4.70
2018-08-22T04:08:45.484Z,4.60
2018-08-22T04:09:45.626Z,4.60
2018-08-22T04:10:45.766Z,4.80
2018-08-22T04:11:45.907Z,4.40
2018-08-22T04:12:46.042Z,4.80
2018-08-22T04:13:47.021Z,4.80
2018-08-22T04:14:46.309Z,4.40
2018-08-22T04:15:46.446Z,4.50
2018-08-22T04:16:46.586Z,4.80
2018-08-22T04:17:46.726Z,4.60
2018-08-22T04:18:46.868Z,4.90
2018-08-22T04:19:46.999Z,4.80
2018-08-22T04:20:47.145Z,5.00
2018-08-22T04:21:47.286Z,4.50
2018-08-22T04:22:47.433Z,4.70
2018-08-22T04:23:47.575Z,4.70
2018-08-22T04:24:47.719Z,4.60
2018-08-22T04:25:47.862Z,4.60
2018-08-22T04:26:48.001Z,4.60
2018-08-22T04:27:48.176Z,4.60
2018-08-22T04:28:48.336Z,4.80
2018-08-22T04:29:48.476Z,4.80
2018-08-22T04:30:48.662Z,4.70
2018-08-22T04:31:48.788Z,4.80
2018-08-22T04:32:48.924Z,4.70
2018-08-22T04:33:49.064Z,4.80
2018-08-22T04:34:49.201Z,5.00
2018-08-22T04:35:49.375Z,4.80
2018-08-22T04:36:49.514Z,4.70
2018-08-22T04:37:49.656Z,4.90
2018-08-22T04:38:49.794Z,4.50
2018-08-22T04:39:49.936Z,4.70
2018-08-22T04:40:50.080Z,4.80
2018-08-22T04:41:50.217Z,4.60
2018-08-22T04:42:50.419Z,4.70
2018-08-22T04:43:50.520Z,4.40
2018-08-22T04:44:50.658Z,4.60
2018-08-22T04:45:50.809Z,4.70
2018-08-22T04:46:50.962Z,5.10
2018-08-22T04:47:51.098Z,4.60
2018-08-22T04:48:51.237Z,4.70
2018-08-22T04:49:51.398Z,5.00
2018-08-22T04:50:51.519Z,4.80
2018-08-22T04:51:51.733Z,4.20
2018-08-22T04:52:51.753Z,4.40
2018-08-22T04:53:51.892Z,4.70
2018-08-22T04:54:52.041Z,4.80
2018-08-22T04:55:52.186Z,4.80
2018-08-22T04:56:52.318Z,5.20
2018-08-22T04:57:52.461Z,5.00
2018-08-22T04:58:52.599Z,5.10
2018-08-22T04:59:52.760Z,5.10
2018-08-22T05:00:52.898Z,5.00
2018-08-22T05:01:53.032Z,5.30
2018-08-22T05:02:53.170Z,5.20
2018-08-22T05:03:53.367Z,5.20
2018-08-22T05:04:53.460Z,5.00
2018-08-22T05:05:53.683Z,5.20
2018-08-22T05:06:53.763Z,5.20
2018-08-22T05:07:53.912Z,5.40
2018-08-22T05:08:54.051Z,5.20
2018-08-22T05:09:54.194Z,4.90
2018-08-22T05:10:54.340Z,5.90
2018-08-22T05:11:54.475Z,5.50
2018-08-22T05:12:54.626Z,5.00
2018-08-22T05:13:54.770Z,5.60
2018-08-22T05:14:54.914Z,5.10
2018-08-22T05:15:55.063Z,5.60
2018-08-22T05:16:55.200Z,5.10
2018-08-22T05:17:55.344Z,5.10
2018-08-22T05:18:55.482Z,5.40
2018-08-22T05:19:55.617Z,5.60
2018-08-22T05:20:55.761Z,5.60
2018-08-22T05:21:55.899Z,5.50
2018-08-22T05:22:56.040Z,5.30
2018-08-22T05:23:56.188Z,6.00
2018-08-22T05:24:56.365Z,5.20
2018-08-22T05:25:56.526Z,5.50
2018-08-22T05:26:56.668Z,5.30
2018-08-22T05:27:56.832Z,5.80
2018-08-22T05:28:56.966Z,5.60
2018-08-22T05:29:57.114Z,5.90
2018-08-22T05:30:57.254Z,5.50
2018-08-22T05:31:57.394Z,5.30
2018-08-22T05:32:57.537Z,5.10
2018-08-22T05:33:57.689Z,5.20
2018-08-22T05:34:57.826Z,5.70
2018-08-22T05:35:57.967Z,5.50
2018-08-22T05:36:58.112Z,5.80
2018-08-22T05:37:58.287Z,5.80
2018-08-22T05:38:58.410Z,5.70
2018-08-22T05:39:59.533Z,5.70
2018-08-22T05:40:58.743Z,5.80
2018-08-22T05:41:58.884Z,5.80
2018-08-22T05:42:59.060Z,6.10
2018-08-22T05:43:59.221Z,5.50
2018-08-22T05:44:59.359Z,5.50
2018-08-22T05:45:59.494Z,5.40
2018-08-22T05:46:59.637Z,5.50
2018-08-22T05:47:59.820Z,5.50
2018-08-22T05:48:59.991Z,5.60
2018-08-22T05:50:00.098Z,5.90
2018-08-22T05:51:00.258Z,5.70
2018-08-22T05:52:00.398Z,6.00
2018-08-22T05:53:00.543Z,5.80
2018-08-22T05:54:00.680Z,6.00
2018-08-22T05:55:00.856Z,5.80
2018-08-22T05:56:00.992Z,6.20
2018-08-22T05:57:01.290Z,5.90
2018-08-22T05:58:01.321Z,5.90
2018-08-22T05:59:01.461Z,6.60
2018-08-22T06:00:01.596Z,6.70
2018-08-22T06:01:01.871Z,6.80
2018-08-22T06:02:01.941Z,7.50
2018-08-22T06:03:02.108Z,7.30
2018-08-22T06:04:02.247Z,6.90
2018-08-22T06:05:02.374Z,7.50
2018-08-22T06:06:02.534Z,6.80
2018-08-22T06:07:02.675Z,6.50
2018-08-22T06:08:02.813Z,7.00
2018-08-22T06:09:03.026Z,7.40
2018-08-22T06:10:03.124Z,6.80
2018-08-22T06:11:03.265Z,6.90
2018-08-22T06:12:03.407Z,6.60
2018-08-22T06:13:03.572Z,6.30
2018-08-22T06:14:03.709Z,5.90
2018-08-22T06:15:03.935Z,6.20
2018-08-22T06:16:03.969Z,5.40
2018-08-22T06:17:04.103Z,5.60
2018-08-22T06:18:04.247Z,5.90
2018-08-22T06:19:04.389Z,5.30
2018-08-22T06:20:04.534Z,6.00
2018-08-22T06:21:04.672Z,5.50
2018-08-22T06:22:04.823Z,6.40
2018-08-22T06:23:04.966Z,6.10
2018-08-22T06:24:05.114Z,6.40
2018-08-22T06:25:05.253Z,6.60
2018-08-22T06:26:05.406Z,6.40
2018-08-22T06:27:05.544Z,6.30
2018-08-22T06:28:05.683Z,6.20
2018-08-22T06:29:05.857Z,6.00
2018-08-22T06:30:05.959Z,6.10
2018-08-22T06:31:06.103Z,6.40
2018-08-22T06:32:06.238Z,6.60
2018-08-22T06:33:06.413Z,6.10
2018-08-22T06:34:06.525Z,5.90
2018-08-22T06:35:06.666Z,6.90
2018-08-22T06:36:06.804Z,6.70
2018-08-22T06:37:07.695Z,6.40
2018-08-22T06:38:07.214Z,5.90
2018-08-22T06:39:07.275Z,6.20
2018-08-22T06:40:07.421Z,6.20
2018-08-22T06:41:07.563Z,6.40
2018-08-22T06:42:07.704Z,6.90
2018-08-22T06:43:07.846Z,6.40
2018-08-22T06:44:07.998Z,6.30
2018-08-22T06:45:08.131Z,6.40
2018-08-22T06:46:08.339Z,5.90
2018-08-22T06:47:08.351Z,6.20
2018-08-22T06:48:08.494Z,5.40
2018-08-22T06:49:08.637Z,5.30
2018-08-22T06:50:08.789Z,5.50
2018-08-22T06:51:08.919Z,5.60
2018-08-22T06:52:09.062Z,5.60
2018-08-22T06:53:09.206Z,5.20
2018-08-22T06:54:09.360Z,5.50
2018-08-22T06:55:09.493Z,5.70
2018-08-22T06:56:09.636Z,5.70
2018-08-22T06:57:09.819Z,6.20
2018-08-22T06:58:09.914Z,6.30
2018-08-22T06:59:10.058Z,5.70
2018-08-22T07:00:10.204Z,5.60
2018-08-22T07:01:10.346Z,6.10
2018-08-22T07:02:10.489Z,5.40
2018-08-22T07:03:10.629Z,7.00
2018-08-22T07:04:10.771Z,5.30
2018-08-22T07:05:10.916Z,5.40
2018-08-22T07:06:11.061Z,5.00
2018-08-22T07:07:11.200Z,5.50
2018-08-22T07:08:11.416Z,5.20
2018-08-22T07:09:11.491Z,5.50
2018-08-22T07:10:11.633Z,5.80
2018-08-22T07:11:11.772Z,5.70
2018-08-22T07:12:11.907Z,4.90
2018-08-22T07:13:12.057Z,4.60
2018-08-22T07:14:12.260Z,5.20
2018-08-22T07:15:12.342Z,5.30
2018-08-22T07:16:12.486Z,4.80
2018-08-22T07:17:12.626Z,4.70
2018-08-22T07:18:12.772Z,5.60
2018-08-22T07:19:12.916Z,4.80
2018-08-22T07:20:13.055Z,4.80
2018-08-22T07:21:13.200Z,5.20
2018-08-22T07:22:13.339Z,5.00
2018-08-22T07:23:13.518Z,4.80
2018-08-22T07:24:13.623Z,4.90
2018-08-22T07:25:13.767Z,5.10
2018-08-22T07:26:13.910Z,5.50
2018-08-22T07:27:14.055Z,5.50
2018-08-22T07:28:14.196Z,5.20
2018-08-22T07:29:14.333Z,5.00
2018-08-22T07:30:14.562Z,5.30
2018-08-22T07:31:14.634Z,6.10
2018-08-22T07:32:14.782Z,4.90
2018-08-22T07:33:14.928Z,5.60
2018-08-22T07:34:15.066Z,5.20
2018-08-22T07:35:15.212Z,5.10
2018-08-22T07:36:15.348Z,5.30
2018-08-22T07:37:15.492Z,5.30
2018-08-22T07:38:15.631Z,5.00
2018-08-22T07:39:15.771Z,5.50
2018-08-22T07:40:15.915Z,5.20
2018-08-22T07:41:16.054Z,5.00
2018-08-22T07:42:16.212Z,5.20
2018-08-22T07:43:16.349Z,5.20
2018-08-22T07:44:16.516Z,4.60
2018-08-22T07:45:16.718Z,4.70
2018-08-22T07:46:16.736Z,4.60
2018-08-22T07:47:16.970Z,6.20
2018-08-22T07:48:17.039Z,7.10
2018-08-22T07:49:17.172Z,6.60
2018-08-22T07:50:17.352Z,7.40
2018-08-22T07:51:17.466Z,6.40
2018-08-22T07:52:17.661Z,6.40
2018-08-22T07:53:17.809Z,5.00
2018-08-22T07:54:17.893Z,4.90
2018-08-22T07:55:18.046Z,4.30
2018-08-22T07:56:18.233Z,4.10
2018-08-22T07:57:18.411Z,4.80
2018-08-22T07:58:18.545Z,4.70
2018-08-22T07:59:18.683Z,5.90
2018-08-22T08:00:18.863Z,4.70
2018-08-22T08:01:18.992Z,4.60
2018-08-22T08:02:19.155Z,4.70
2018-08-22T08:03:19.276Z,4.30
2018-08-22T08:04:19.420Z,4.50
2018-08-22T08:05:19.569Z,4.80
2018-08-22T08:06:19.748Z,4.20
2018-08-22T08:07:19.997Z,4.80
2018-08-22T08:08:20.051Z,4.90
2018-08-22T08:09:20.162Z,4.10
2018-08-22T08:10:20.327Z,4.40
2018-08-22T08:11:20.464Z,4.00
2018-08-22T08:12:20.599Z,3.90
2018-08-22T08:13:20.754Z,4.70
2018-08-22T08:14:20.902Z,4.30
2018-08-22T08:15:21.713Z,4.50
2018-08-22T08:16:21.184Z,4.30
2018-08-22T08:17:21.353Z,4.20
2018-08-22T08:18:21.466Z,4.60
2018-08-22T08:19:21.604Z,5.40
2018-08-22T08:20:21.747Z,4.90
2018-08-22T08:21:21.896Z,6.20
2018-08-22T08:22:22.145Z,5.00
2018-08-22T08:23:22.160Z,4.30
2018-08-22T08:24:22.296Z,4.20
2018-08-22T08:25:22.454Z,4.40
2018-08-22T08:26:22.596Z,4.10
2018-08-22T08:27:22.738Z,4.10
2018-08-22T08:28:22.919Z,4.40
2018-08-22T08:29:23.061Z,4.40
2018-08-22T08:30:23.200Z,4.10
2018-08-22T08:31:23.345Z,4.10
2018-08-22T08:32:23.499Z,4.20
2018-08-22T08:33:23.640Z,3.60
2018-08-22T08:34:23.779Z,3.90
2018-08-22T08:35:23.929Z,4.30
2018-08-22T08:36:24.072Z,4.00
2018-08-22T08:37:24.217Z,4.00
2018-08-22T08:38:24.358Z,4.30
2018-08-22T08:39:24.517Z,4.20
2018-08-22T08:40:24.659Z,4.50
2018-08-22T08:41:24.807Z,4.50
2018-08-22T08:42:25.787Z,4.80
2018-08-22T08:43:25.233Z,4.60
2018-08-22T08:44:25.279Z,4.10
2018-08-22T08:45:25.416Z,4.20
2018-08-22T08:46:25.562Z,4.50
2018-08-22T08:47:25.703Z,4.10
2018-08-22T08:48:25.844Z,4.00
2018-08-22T08:49:26.021Z,4.50
2018-08-22T08:50:26.130Z,4.50
2018-08-22T08:51:26.286Z,4.50
2018-08-22T08:52:26.411Z,4.00
2018-08-22T08:53:26.562Z,4.30
2018-08-22T08:54:26.766Z,3.90
2018-08-22T08:55:26.858Z,4.30
2018-08-22T08:56:27.004Z,4.30
2018-08-22T08:57:27.208Z,4.30
2018-08-22T08:58:27.283Z,4.50
2018-08-22T08:59:27.427Z,4.50
2018-08-22T09:00:27.578Z,4.60
2018-08-22T09:01:27.716Z,4.30
2018-08-22T09:02:27.956Z,5.10
2018-08-22T09:03:27.969Z,4.60
2018-08-22T09:04:28.116Z,4.60
2018-08-22T09:05:28.257Z,4.40
2018-08-22T09:06:28.491Z,5.20
2018-08-22T09:07:28.561Z,4.60
2018-08-22T09:08:28.699Z,4.60
2018-08-22T09:09:28.865Z,4.50
2018-08-22T09:10:29.002Z,4.10
2018-08-22T09:11:29.145Z,3.90
2018-08-22T09:12:29.300Z,4.50
2018-08-22T09:13:29.460Z,4.10
2018-08-22T09:14:29.602Z,4.70
2018-08-22T09:15:29.770Z,4.50
2018-08-22T09:16:29.986Z,4.50
2018-08-22T09:17:30.048Z,4.30
2018-08-22T09:18:30.192Z,4.70
2018-08-22T09:19:30.334Z,6.60
2018-08-22T09:20:30.494Z,7.40
2018-08-22T09:21:30.682Z,11.30
2018-08-22T09:22:30.769Z,8.60
2018-08-22T09:23:30.953Z,9.00
2018-08-22T09:24:31.101Z,6.40
2018-08-22T09:25:31.239Z,4.60
2018-08-22T09:26:31.412Z,4.30
2018-08-22T09:27:31.545Z,4.30
2018-08-22T09:28:31.685Z,4.30
2018-08-22T09:29:31.842Z,6.30
2018-08-22T09:30:31.994Z,6.90
2018-08-22T09:31:32.135Z,12.00
2018-08-22T09:32:32.302Z,8.20
2018-08-22T09:33:32.423Z,16.60
2018-08-22T09:34:32.575Z,10.30
2018-08-22T09:35:32.818Z,6.70
2018-08-22T09:36:32.901Z,12.90
2018-08-22T09:37:33.038Z,11.30
2018-08-22T09:38:33.182Z,8.50
2018-08-22T09:39:33.325Z,9.40
2018-08-22T09:40:33.499Z,5.10
2018-08-22T09:41:33.634Z,9.90
2018-08-22T09:42:33.793Z,8.40
2018-08-22T09:43:33.910Z,6.50
2018-08-22T09:44:34.118Z,10.50
2018-08-22T09:45:34.167Z,6.60
2018-08-22T09:46:34.322Z,5.40
2018-08-22T09:47:34.499Z,7.40
2018-08-22T09:48:34.659Z,6.80
2018-08-22T09:49:34.808Z,5.30
2018-08-22T09:50:34.950Z,4.90
2018-08-22T09:51:35.239Z,5.20
2018-08-22T09:52:35.276Z,4.50
2018-08-22T09:53:35.419Z,5.90
2018-08-22T09:54:35.591Z,5.10
2018-08-22T09:55:35.704Z,4.60
2018-08-22T09:56:35.846Z,4.50
2018-08-22T09:57:35.987Z,4.30
2018-08-22T09:58:36.130Z,4.90
2018-08-22T09:59:36.272Z,5.70
2018-08-22T10:00:36.415Z,5.40
2018-08-22T10:01:36.548Z,5.30
2018-08-22T10:02:36.692Z,5.70
2018-08-22T10:03:36.841Z,5.50
2018-08-22T10:04:36.979Z,5.20
2018-08-22T10:05:37.131Z,5.10
2018-08-22T10:06:37.358Z,5.10
2018-08-22T10:07:37.416Z,5.50
2018-08-22T10:08:37.560Z,5.00
2018-08-22T10:09:37.708Z,6.40
2018-08-22T10:10:37.851Z,5.60
2018-08-22T10:11:37.996Z,4.90
2018-08-22T10:12:38.143Z,4.70
2018-08-22T10:13:38.284Z,4.40
2018-08-22T10:14:38.465Z,4.90
2018-08-22T10:15:38.578Z,5.20
2018-08-22T10:16:38.721Z,4.90
2018-08-22T10:17:38.885Z,4.50
2018-08-22T10:18:39.025Z,4.80
2018-08-22T10:19:39.240Z,4.60
2018-08-22T10:20:39.314Z,4.70
2018-08-22T10:21:39.477Z,5.10
2018-08-22T10:22:39.616Z,4.80
2018-08-22T10:23:39.763Z,4.80
2018-08-22T10:24:39.911Z,4.80
2018-08-22T10:25:40.066Z,4.50
2018-08-22T10:26:40.246Z,4.70
2018-08-22T10:27:40.358Z,4.70
2018-08-22T10:28:40.504Z,4.50
2018-08-22T10:29:40.684Z,4.80
2018-08-22T10:30:40.821Z,4.60
2018-08-22T10:31:40.967Z,4.50
2018-08-22T10:32:41.147Z,5.10
2018-08-22T10:33:41.290Z,4.90
2018-08-22T10:34:41.428Z,4.90
2018-08-22T10:35:41.572Z,4.30
2018-08-22T10:36:41.716Z,4.70
2018-08-22T10:37:41.876Z,4.70
2018-08-22T10:38:42.094Z,4.80
2018-08-22T10:39:42.114Z,4.70
2018-08-22T10:40:42.262Z,4.50
2018-08-22T10:41:42.475Z,4.10
2018-08-22T10:42:42.565Z,4.70
2018-08-22T10:43:42.722Z,5.00
2018-08-22T10:44:42.882Z,6.80
2018-08-22T10:45:43.058Z,5.60
2018-08-22T10:46:43.203Z,4.10
2018-08-22T10:47:43.352Z,3.90
2018-08-22T10:48:43.507Z,4.40
2018-08-22T10:49:43.645Z,4.30
2018-08-22T10:50:43.865Z,4.00
2018-08-22T10:51:44.016Z,4.20
2018-08-22T10:52:44.167Z,4.00
2018-08-22T10:53:44.314Z,4.30
2018-08-22T10:54:44.604Z,4.60
2018-08-22T10:55:45.088Z,4.50
2018-08-22T10:56:44.746Z,4.40
2018-08-22T10:57:44.888Z,4.60
2018-08-22T10:58:45.104Z,5.00
2018-08-22T10:59:45.181Z,4.20
2018-08-22T11:00:45.357Z,3.90
2018-08-22T11:01:45.517Z,4.80
2018-08-22T11:02:45.665Z,4.20
2018-08-22T11:03:46.004Z,4.30
2018-08-22T11:04:46.001Z,4.20
2018-08-22T11:05:46.196Z,4.20
2018-08-22T11:06:46.316Z,4.20
2018-08-22T11:07:46.522Z,4.00
2018-08-22T11:08:47.540Z,4.10
2018-08-22T11:09:46.977Z,4.10
2018-08-22T11:10:47.001Z,4.10
2018-08-22T11:11:47.145Z,4.10
2018-08-22T11:12:47.287Z,3.70
2018-08-22T11:13:47.433Z,4.10
2018-08-22T11:14:47.573Z,4.20
2018-08-22T11:15:47.768Z,4.00
2018-08-22T11:16:47.858Z,4.10
2018-08-22T11:17:48.014Z,4.10
2018-08-22T11:18:48.166Z,4.60
2018-08-22T11:19:48.313Z,4.70
2018-08-22T11:20:48.467Z,4.20
2018-08-22T11:21:48.613Z,4.20
2018-08-22T11:22:48.759Z,3.90
2018-08-22T11:23:48.906Z,4.60
2018-08-22T11:24:49.052Z,5.30
2018-08-22T11:25:49.199Z,4.20
2018-08-22T11:26:49.343Z,4.10
2018-08-22T11:27:49.492Z,4.00
2018-08-22T11:28:49.639Z,3.80
2018-08-22T11:29:49.784Z,3.90
2018-08-22T11:30:49.927Z,4.20
2018-08-22T11:31:50.079Z,3.90
2018-08-22T11:32:50.229Z,3.80
2018-08-22T11:33:50.379Z,4.30
2018-08-22T11:34:50.524Z,3.80
2018-08-22T11:35:50.687Z,4.30
2018-08-22T11:36:50.854Z,4.30
2018-08-22T11:37:51.002Z,5.90
2018-08-22T11:38:51.142Z,6.70
2018-08-22T11:39:51.319Z,6.00
2018-08-22T11:40:51.453Z,6.00
2018-08-22T11:41:51.597Z,5.40
2018-08-22T11:42:51.758Z,10.70
2018-08-22T11:43:51.905Z,12.60
2018-08-22T11:44:52.057Z,10.30
2018-08-22T11:45:52.205Z,36.00
2018-08-22T11:46:52.496Z,35.50
2018-08-22T11:47:52.523Z,21.20
2018-08-22T11:48:52.673Z,7.20
2018-08-22T11:49:52.829Z,5.60
2018-08-22T11:50:52.968Z,3.50
2018-08-22T11:51:53.113Z,3.40
2018-08-22T11:52:53.285Z,3.20
2018-08-22T11:53:53.435Z,3.50
2018-08-22T11:54:53.575Z,3.70
2018-08-22T11:55:53.762Z,3.80
2018-08-22T11:56:53.891Z,3.00
2018-08-22T11:57:54.042Z,3.80
2018-08-22T11:58:54.187Z,4.00
2018-08-22T11:59:54.348Z,4.40
2018-08-22T12:00:54.489Z,4.10
2018-08-22T12:01:54.706Z,3.90
2018-08-22T12:02:54.827Z,4.00
2018-08-22T12:03:54.975Z,4.20
2018-08-22T12:04:55.125Z,3.50
2018-08-22T12:05:55.372Z,3.80
2018-08-22T12:06:55.463Z,3.30
2018-08-22T12:07:55.617Z,3.30
2018-08-22T12:08:55.765Z,3.40
2018-08-22T12:09:55.927Z,3.20
2018-08-22T12:10:56.072Z,3.60
2018-08-22T12:11:56.234Z,3.30
2018-08-22T12:12:56.383Z,3.40
2018-08-22T12:13:56.568Z,3.30
2018-08-22T12:14:56.712Z,3.20
2018-08-22T12:15:56.873Z,3.40
2018-08-22T12:16:57.028Z,3.40
2018-08-22T12:17:57.199Z,3.50
2018-08-22T12:18:57.439Z,3.50
2018-08-22T12:19:57.555Z,3.60
2018-08-22T12:20:57.702Z,3.30
2018-08-22T12:21:57.852Z,3.50
2018-08-22T12:22:58.063Z,3.10
2018-08-22T12:23:58.156Z,3.10
2018-08-22T12:24:58.306Z,3.30
2018-08-22T12:25:58.488Z,3.20
2018-08-22T12:26:58.637Z,3.50
2018-08-22T12:27:58.783Z,3.70
2018-08-22T12:28:58.985Z,3.30
2018-08-22T12:29:59.093Z,3.20
2018-08-22T12:30:59.283Z,3.20
2018-08-22T12:31:59.397Z,3.20
2018-08-22T12:32:59.557Z,3.30
2018-08-22T12:33:59.706Z,3.30
2018-08-22T12:34:59.912Z,3.40
2018-08-22T12:36:00.030Z,3.20
2018-08-22T12:37:00.187Z,3.20
2018-08-22T12:38:00.350Z,3.50
2018-08-22T12:39:00.499Z,3.10
2018-08-22T12:40:00.654Z,3.70
2018-08-22T12:41:00.826Z,3.40
2018-08-22T12:42:01.013Z,3.40
2018-08-22T12:43:01.142Z,3.50
2018-08-22T12:44:01.303Z,3.10
2018-08-22T12:45:01.458Z,3.30
2018-08-22T12:46:01.604Z,3.40
2018-08-22T12:47:01.753Z,3.80
2018-08-22T12:48:01.952Z,3.60
2018-08-22T12:49:02.071Z,3.30
2018-08-22T12:50:02.228Z,3.10
2018-08-22T12:51:02.863Z,3.60
2018-08-22T12:52:02.510Z,3.50
2018-08-22T12:53:02.669Z,3.60
2018-08-22T12:54:02.837Z,3.70
2018-08-22T12:55:02.985Z,3.50
2018-08-22T12:56:03.129Z,3.40
2018-08-22T12:57:04.280Z,3.70
2018-08-22T12:58:03.399Z,3.40
2018-08-22T12:59:03.545Z,3.50
2018-08-22T13:00:03.706Z,3.80
2018-08-22T13:01:03.875Z,3.60
2018-08-22T13:02:04.041Z,3.70
2018-08-22T13:03:04.209Z,3.00
2018-08-22T13:04:04.340Z,3.50
2018-08-22T13:05:04.490Z,3.60
2018-08-22T13:06:04.644Z,3.50
2018-08-22T13:07:04.803Z,3.90
2018-08-22T13:08:04.983Z,3.80
2018-08-22T13:09:05.213Z,4.20
2018-08-22T13:10:05.236Z,3.50
2018-08-22T13:11:05.399Z,3.50
2018-08-22T13:12:05.541Z,3.60
2018-08-22T13:13:05.695Z,4.10
2018-08-22T13:14:05.854Z,3.70
2018-08-22T13:15:06.001Z,4.00
2018-08-22T13:16:06.156Z,4.00
2018-08-22T13:17:06.411Z,4.10
2018-08-22T13:18:06.465Z,3.60
2018-08-22T13:19:06.612Z,3.30
2018-08-22T13:20:06.781Z,3.60